Time;durP1;ratioP1;P1;durP2;ratioP2;P2;SDS_P1;SDS_P2;PMS_P1;PMS_P2;Temp;Humidity;BMP_temperature;BMP_pressure;BME280_temperature;BME280_humidity;BME280_pressure;Samples;Min_cycle;Max_cycle;Signal;HPM_P1;HPM_P2
2023/07/30 00:04:36;;;;;;;;;;;22.10;63.50;;;;;;10294155;28;94420;-64
2023/07/30 00:09:38;;;;;;;;;;;22.00;63.40;;;;;;10296744;28;93712;-64
2023/07/30 00:14:39;;;;;;;;;;;22.10;63.40;;;;;;10294482;28;93400;-63
2023/07/30 00:19:41;;;;;;;;;;;22.10;63.30;;;;;;10293456;28;93485;-64
2023/07/30 00:24:43;;;;;;;;;;;22.10;63.20;;;;;;10291299;28;95869;-63
2023/07/30 00:29:45;;;;;;;;;;;22.10;63.20;;;;;;10294223;28;93413;-64
2023/07/30 00:34:47;;;;;;;;;;;22.10;63.10;;;;;;10292533;28;94553;-64
2023/07/30 00:39:48;;;;;;;;;;;22.10;63.00;;;;;;10294037;28;93827;-64
2023/07/30 00:44:50;;;;;;;;;;;22.10;63.00;;;;;;10293232;28;93532;-62
2023/07/30 00:49:52;;;;;;;;;;;22.10;63.00;;;;;;10293465;28;94072;-63
2023/07/30 00:54:56;;;;;;;;;;;22.10;62.90;;;;;;10293262;28;93814;-63
2023/07/30 00:59:58;;;;;;;;;;;22.10;62.80;;;;;;10294788;28;93898;-64
2023/07/30 01:05:00;;;;;;;;;;;22.10;62.80;;;;;;10293133;28;94357;-63
2023/07/30 01:10:03;;;;;;;;;;;22.10;62.80;;;;;;10293285;28;93728;-64
2023/07/30 01:15:05;;;;;;;;;;;22.10;62.80;;;;;;10289602;28;96588;-64
2023/07/30 01:20:07;;;;;;;;;;;22.10;62.80;;;;;;10293247;28;93531;-63
2023/07/30 01:25:09;;;;;;;;;;;22.10;62.70;;;;;;10293621;28;94410;-63
2023/07/30 01:30:13;;;;;;;;;;;22.10;62.70;;;;;;10292970;28;93468;-65
2023/07/30 01:35:15;;;;;;;;;;;22.10;62.60;;;;;;10292528;28;92530;-64
2023/07/30 01:40:17;;;;;;;;;;;22.10;62.60;;;;;;10291565;28;93546;-64
2023/07/30 01:45:19;;;;;;;;;;;22.10;62.60;;;;;;10292951;28;94047;-64
2023/07/30 01:50:21;;;;;;;;;;;22.10;62.60;;;;;;10290415;28;93738;-64
2023/07/30 01:55:23;;;;;;;;;;;22.00;62.60;;;;;;10290363;28;93537;-65
2023/07/30 02:00:24;;;;;;;;;;;22.10;62.60;;;;;;10289939;28;94568;-64
2023/07/30 02:05:28;;;;;;;;;;;22.00;62.60;;;;;;10287481;28;116187;-64
2023/07/30 02:10:30;;;;;;;;;;;22.00;62.60;;;;;;10290235;28;94349;-64
2023/07/30 02:15:32;;;;;;;;;;;22.00;62.70;;;;;;10289386;28;93409;-64
2023/07/30 02:20:34;;;;;;;;;;;22.00;62.70;;;;;;10291304;28;93426;-64
2023/07/30 02:25:37;;;;;;;;;;;22.00;62.70;;;;;;10288062;28;93469;-64
2023/07/30 02:30:39;;;;;;;;;;;21.90;62.60;;;;;;10290278;28;94811;-64
2023/07/30 02:35:42;;;;;;;;;;;21.90;62.60;;;;;;10289484;28;93502;-65
2023/07/30 02:40:44;;;;;;;;;;;21.90;62.60;;;;;;10290263;28;93284;-64
2023/07/30 02:45:49;;;;;;;;;;;21.90;62.60;;;;;;10287924;28;93450;-64
2023/07/30 02:50:51;;;;;;;;;;;21.90;62.70;;;;;;10286401;28;93555;-64
2023/07/30 02:55:52;;;;;;;;;;;21.90;62.60;;;;;;10287470;28;95233;-65
2023/07/30 03:00:54;;;;;;;;;;;21.90;62.70;;;;;;10289188;28;94088;-64
2023/07/30 03:05:56;;;;;;;;;;;21.90;62.70;;;;;;10289526;28;94523;-64
2023/07/30 03:10:59;;;;;;;;;;;21.80;62.70;;;;;;10289887;28;93883;-64
2023/07/30 03:16:01;;;;;;;;;;;21.80;62.70;;;;;;10288965;28;93421;-64
2023/07/30 03:21:03;;;;;;;;;;;21.80;62.70;;;;;;10288959;28;93460;-64
2023/07/30 03:26:05;;;;;;;;;;;21.80;62.70;;;;;;10288258;28;94565;-64
2023/07/30 03:31:07;;;;;;;;;;;21.80;62.80;;;;;;10289612;28;93651;-64
2023/07/30 03:36:09;;;;;;;;;;;21.80;62.90;;;;;;10287477;28;94403;-64
2023/07/30 03:41:11;;;;;;;;;;;21.80;63.00;;;;;;10287003;28;93465;-64
2023/07/30 03:46:13;;;;;;;;;;;21.80;62.90;;;;;;10285350;28;96737;-64
2023/07/30 03:51:14;;;;;;;;;;;21.80;62.90;;;;;;10286604;28;93436;-64
2023/07/30 03:56:16;;;;;;;;;;;21.80;62.90;;;;;;10287210;28;95625;-63
2023/07/30 04:01:18;;;;;;;;;;;21.80;62.90;;;;;;10288258;28;94009;-64
2023/07/30 04:06:20;;;;;;;;;;;21.80;63.00;;;;;;10286261;28;94424;-63
2023/07/30 04:11:22;;;;;;;;;;;21.80;62.90;;;;;;10288399;28;94438;-63
2023/07/30 04:16:23;;;;;;;;;;;21.80;62.90;;;;;;10286198;28;93895;-64
2023/07/30 04:21:25;;;;;;;;;;;21.80;62.90;;;;;;10287630;28;92948;-63
2023/07/30 04:26:27;;;;;;;;;;;21.80;63.00;;;;;;10287845;28;94543;-63
2023/07/30 04:31:29;;;;;;;;;;;21.80;62.90;;;;;;10287687;28;93503;-63
2023/07/30 04:36:31;;;;;;;;;;;21.80;62.90;;;;;;10283802;28;95223;-64
2023/07/30 04:41:32;;;;;;;;;;;21.80;62.90;;;;;;10287264;28;94582;-64
2023/07/30 04:52:21;;;;;;;;;;;21.80;62.90;;;;;;10251377;28;92887;-62
2023/07/30 04:57:22;;;;;;;;;;;21.80;62.90;;;;;;10253094;28;93378;-62
2023/07/30 05:02:24;;;;;;;;;;;21.90;63.00;;;;;;10251245;28;93339;-62
2023/07/30 05:07:26;;;;;;;;;;;21.90;62.90;;;;;;10250999;28;93585;-62
2023/07/30 05:12:28;;;;;;;;;;;21.80;62.90;;;;;;10235357;28;93605;-62
2023/07/30 05:17:30;;;;;;;;;;;21.90;62.90;;;;;;10252563;28;94055;-62
2023/07/30 05:22:31;;;;;;;;;;;21.90;62.90;;;;;;10252570;28;93408;-63
2023/07/30 05:27:34;;;;;;;;;;;21.90;63.00;;;;;;10248562;28;95829;-62
2023/07/30 05:32:36;;;;;;;;;;;21.90;62.90;;;;;;10250444;28;93458;-62
2023/07/30 05:37:38;;;;;;;;;;;21.90;63.00;;;;;;10251264;28;93540;-62
2023/07/30 05:42:39;;;;;;;;;;;21.90;62.90;;;;;;10251232;28;93462;-62
2023/07/30 05:47:41;;;;;;;;;;;21.90;63.00;;;;;;10253374;28;93663;-62
2023/07/30 05:52:43;;;;;;;;;;;21.90;63.00;;;;;;10291652;28;94810;-64
2023/07/30 05:57:45;;;;;;;;;;;21.90;63.00;;;;;;10290786;28;93494;-63
2023/07/30 06:02:47;;;;;;;;;;;21.90;63.00;;;;;;10291622;28;92654;-62
2023/07/30 06:07:49;;;;;;;;;;;21.90;63.00;;;;;;10291325;28;93438;-62
2023/07/30 06:12:51;;;;;;;;;;;21.90;63.00;;;;;;10290401;28;93487;-62
2023/07/30 06:17:53;;;;;;;;;;;21.90;63.00;;;;;;10286369;28;96150;-63
2023/07/30 06:22:55;;;;;;;;;;;21.90;63.00;;;;;;10291129;28;94397;-63
2023/07/30 06:27:58;;;;;;;;;;;21.90;63.10;;;;;;10291019;28;93237;-62
2023/07/30 06:33:00;;;;;;;;;;;21.90;63.10;;;;;;10291032;28;93960;-62
2023/07/30 06:38:02;;;;;;;;;;;21.90;63.20;;;;;;10290708;28;93786;-63
2023/07/30 06:43:03;;;;;;;;;;;21.90;63.20;;;;;;10290344;28;92610;-63
2023/07/30 06:48:05;;;;;;;;;;;21.80;63.20;;;;;;10289088;28;93544;-63
2023/07/30 06:53:07;;;;;;;;;;;21.90;63.30;;;;;;10290181;28;92807;-62
2023/07/30 06:58:10;;;;;;;;;;;21.80;63.30;;;;;;10289535;28;93483;-62
2023/07/30 07:03:12;;;;;;;;;;;21.80;63.40;;;;;;10270855;28;93972;-64
2023/07/30 07:08:14;;;;;;;;;;;21.80;63.40;;;;;;10269308;28;96762;-64
2023/07/30 07:13:16;;;;;;;;;;;21.80;63.50;;;;;;10287710;28;94433;-64
2023/07/30 07:18:17;;;;;;;;;;;21.80;63.60;;;;;;10288316;28;93504;-64
2023/07/30 07:23:19;;;;;;;;;;;21.80;64.50;;;;;;10289271;28;94101;-63
2023/07/30 07:28:21;;;;;;;;;;;21.80;63.50;;;;;;10289080;28;94383;-63
2023/07/30 07:33:23;;;;;;;;;;;21.80;63.50;;;;;;10288752;28;95087;-63
2023/07/30 07:38:24;;;;;;;;;;;21.80;63.50;;;;;;10288802;28;93930;-64
2023/07/30 07:43:26;;;;;;;;;;;21.80;63.40;;;;;;10289707;28;92736;-65
2023/07/30 07:48:28;;;;;;;;;;;21.80;63.50;;;;;;10286447;28;93491;-62
2023/07/30 07:53:30;;;;;;;;;;;21.80;63.50;;;;;;10288186;28;95373;-62
2023/07/30 07:58:32;;;;;;;;;;;21.80;63.50;;;;;;10286423;28;95637;-64
2023/07/30 08:03:34;;;;;;;;;;;21.80;63.60;;;;;;10288359;28;94387;-64
2023/07/30 08:08:36;;;;;;;;;;;21.80;63.70;;;;;;10270243;28;93492;-62
2023/07/30 08:13:39;;;;;;;;;;;21.80;63.60;;;;;;10287009;28;93515;-63
2023/07/30 08:18:41;;;;;;;;;;;21.80;63.70;;;;;;10287831;28;93827;-65
2023/07/30 08:23:43;;;;;;;;;;;21.80;63.60;;;;;;10291224;28;93926;-63
2023/07/30 08:28:44;;;;;;;;;;;21.80;63.60;;;;;;10293949;28;93571;-62
2023/07/30 08:33:46;;;;;;;;;;;21.80;63.60;;;;;;10277290;28;92747;-62
2023/07/30 08:38:48;;;;;;;;;;;21.80;63.60;;;;;;10294549;28;94447;-63
2023/07/30 08:43:49;;;;;;;;;;;21.80;63.50;;;;;;10292561;28;94838;-62
2023/07/30 08:48:51;;;;;;;;;;;21.80;63.40;;;;;;10290451;28;96779;-65
2023/07/30 08:53:53;;;;;;;;;;;21.80;63.40;;;;;;10259495;28;93495;-65
2023/07/30 08:58:57;;;;;;;;;;;21.80;63.40;;;;;;10293571;28;93200;-63
2023/07/30 09:04:02;;;;;;;;;;;21.80;63.30;;;;;;10293186;28;93622;-62
2023/07/30 09:09:05;;;;;;;;;;;21.90;63.40;;;;;;10293098;28;93063;-62
2023/07/30 09:14:07;;;;;;;;;;;21.90;63.30;;;;;;10292978;28;93489;-62
2023/07/30 09:19:09;;;;;;;;;;;21.90;63.20;;;;;;10293619;28;94363;-62
2023/07/30 09:24:11;;;;;;;;;;;21.90;63.20;;;;;;10293442;28;93374;-63
2023/07/30 09:29:13;;;;;;;;;;;22.00;63.10;;;;;;10293280;28;93973;-62
2023/07/30 09:34:16;;;;;;;;;;;22.00;63.10;;;;;;10290891;28;93535;-63
2023/07/30 09:39:22;;;;;;;;;;;22.00;63.10;;;;;;10272029;28;95903;-63
2023/07/30 09:44:24;;;;;;;;;;;22.10;63.00;;;;;;10292110;28;93499;-63
2023/07/30 09:49:25;;;;;;;;;;;22.10;62.80;;;;;;10290909;28;94448;-63
2023/07/30 09:54:28;;;;;;;;;;;22.10;62.60;;;;;;10290791;28;94479;-63
2023/07/30 09:59:30;;;;;;;;;;;22.20;62.40;;;;;;10291139;28;94312;-63
2023/07/30 10:04:33;;;;;;;;;;;22.20;62.30;;;;;;10290815;28;94529;-63
2023/07/30 10:09:38;;;;;;;;;;;22.20;62.30;;;;;;10273181;28;93553;-63
2023/07/30 10:14:40;;;;;;;;;;;22.20;62.10;;;;;;10291296;28;92583;-63
2023/07/30 10:19:46;;;;;;;;;;;22.30;62.00;;;;;;10290671;28;94487;-63
2023/07/30 10:25:02;;;;;;;;;;;22.40;61.80;;;;;;10289933;28;94591;-63
2023/07/30 10:30:14;;;;;;;;;;;22.40;61.50;;;;;;10287956;28;96932;-63
2023/07/30 10:35:42;;;;;;;;;;;22.40;61.40;;;;;;10290436;28;93419;-63
2023/07/30 10:41:01;;;;;;;;;;;22.40;61.40;;;;;;10286250;28;93483;-63
2023/07/30 10:46:03;;;;;;;;;;;22.50;61.20;;;;;;10289628;28;94389;-63
2023/07/30 10:51:06;;;;;;;;;;;22.50;61.10;;;;;;10289393;28;93414;-63
2023/07/30 10:56:09;;;;;;;;;;;22.50;60.90;;;;;;10289420;28;94523;-62
2023/07/30 11:01:10;;;;;;;;;;;22.50;60.80;;;;;;10289379;28;93382;-62
2023/07/30 11:06:12;;;;;;;;;;;22.50;61.70;;;;;;10289609;28;91935;-62
2023/07/30 11:11:14;;;;;;;;;;;22.50;60.60;;;;;;10289037;28;94171;-63
2023/07/30 11:16:16;;;;;;;;;;;22.50;60.60;;;;;;10288542;28;93451;-63
2023/07/30 11:21:18;;;;;;;;;;;22.50;60.70;;;;;;10285121;28;95820;-63
2023/07/30 11:26:20;;;;;;;;;;;22.40;60.70;;;;;;10288960;28;93468;-63
2023/07/30 11:31:24;;;;;;;;;;;22.40;60.60;;;;;;10289482;28;93765;-63
2023/07/30 11:36:27;;;;;;;;;;;22.40;60.70;;;;;;10289129;28;93458;-63
2023/07/30 11:41:28;;;;;;;;;;;22.30;60.70;;;;;;10288599;28;94466;-63
2023/07/30 11:46:32;;;;;;;;;;;22.30;60.70;;;;;;10287738;28;93680;-63
2023/07/30 11:51:37;;;;;;;;;;;22.30;60.70;;;;;;10288066;28;93427;-63
2023/07/30 11:56:40;;;;;;;;;;;22.30;60.70;;;;;;10288560;28;94302;-63
2023/07/30 12:01:42;;;;;;;;;;;22.30;60.70;;;;;;10288295;28;94624;-63
2023/07/30 12:06:46;;;;;;;;;;;22.30;60.70;;;;;;10288525;28;94776;-63
2023/07/30 12:11:55;;;;;;;;;;;22.30;60.70;;;;;;10286092;28;96927;-63
2023/07/30 12:16:57;;;;;;;;;;;22.30;60.70;;;;;;10270707;28;96029;-63
2023/07/30 12:21:59;;;;;;;;;;;22.20;60.70;;;;;;10287527;28;94413;-63
2023/07/30 12:27:01;;;;;;;;;;;22.20;60.80;;;;;;10268965;28;94483;-63
2023/07/30 12:32:03;;;;;;;;;;;22.20;60.80;;;;;;10287560;28;94457;-62
2023/07/30 12:37:05;;;;;;;;;;;22.20;60.80;;;;;;10286679;28;93672;-63
2023/07/30 12:42:07;;;;;;;;;;;22.20;60.60;;;;;;10286351;28;93511;-63
2023/07/30 12:47:09;;;;;;;;;;;22.20;60.60;;;;;;10288642;28;91872;-63
2023/07/30 12:52:11;;;;;;;;;;;22.20;60.60;;;;;;10285899;28;93558;-63
2023/07/30 12:57:12;;;;;;;;;;;22.20;60.60;;;;;;10286439;28;93266;-63
2023/07/30 13:02:14;;;;;;;;;;;22.30;60.60;;;;;;10283884;28;96821;-63
2023/07/30 13:07:16;;;;;;;;;;;22.30;60.50;;;;;;10285776;28;93847;-63
2023/07/30 13:12:18;;;;;;;;;;;22.30;60.50;;;;;;10292999;28;93232;-63
2023/07/30 13:17:20;;;;;;;;;;;22.30;60.60;;;;;;10292945;28;93676;-63
2023/07/30 13:22:22;;;;;;;;;;;22.30;60.50;;;;;;10292759;28;94537;-63
2023/07/30 13:27:24;;;;;;;;;;;22.30;60.50;;;;;;10292126;28;94483;-63
2023/07/30 13:32:25;;;;;;;;;;;22.30;60.50;;;;;;10293293;28;94450;-63
2023/07/30 13:37:27;;;;;;;;;;;22.30;60.50;;;;;;10293088;28;93827;-63
2023/07/30 13:42:29;;;;;;;;;;;22.30;60.50;;;;;;10291225;28;93404;-63
2023/07/30 13:47:31;;;;;;;;;;;22.30;60.40;;;;;;10291177;28;94372;-62
2023/07/30 13:52:33;;;;;;;;;;;22.30;60.30;;;;;;10289539;28;95636;-63
2023/07/30 13:57:34;;;;;;;;;;;22.30;60.30;;;;;;10291616;28;93992;-63
2023/07/30 14:02:37;;;;;;;;;;;22.30;60.30;;;;;;10291361;28;93432;-63
2023/07/30 14:07:40;;;;;;;;;;;22.30;60.30;;;;;;10291363;28;94545;-63
2023/07/30 14:12:42;;;;;;;;;;;22.30;60.30;;;;;;10291424;28;93565;-62
2023/07/30 14:17:44;;;;;;;;;;;22.30;60.20;;;;;;10290215;28;93426;-62
2023/07/30 14:22:45;;;;;;;;;;;22.30;60.10;;;;;;10289126;28;93528;-62
2023/07/30 14:27:47;;;;;;;;;;;22.30;60.10;;;;;;10292032;28;92749;-62
2023/07/30 14:32:49;;;;;;;;;;;22.30;60.10;;;;;;10290912;28;93149;-63
2023/07/30 14:37:51;;;;;;;;;;;22.30;60.00;;;;;;10291018;28;93579;-62
2023/07/30 14:42:53;;;;;;;;;;;22.30;59.90;;;;;;10286441;28;95847;-63
2023/07/30 14:47:55;;;;;;;;;;;22.30;59.80;;;;;;10289057;28;94771;-63
2023/07/30 14:52:57;;;;;;;;;;;22.30;59.80;;;;;;10290382;28;94384;-63
2023/07/30 14:58:00;;;;;;;;;;;22.30;59.80;;;;;;10271723;28;94447;-63
2023/07/30 15:03:02;;;;;;;;;;;22.30;59.70;;;;;;10272370;28;94561;-63
2023/07/30 15:08:04;;;;;;;;;;;22.30;59.70;;;;;;10281896;28;94511;-63
2023/07/30 15:13:06;;;;;;;;;;;22.30;59.70;;;;;;10249076;28;94446;-63
2023/07/30 15:18:08;;;;;;;;;;;22.40;59.60;;;;;;10248052;28;92824;-63
2023/07/30 15:23:12;;;;;;;;;;;22.40;59.60;;;;;;10248690;28;92483;-63
2023/07/30 15:28:13;;;;;;;;;;;22.40;59.50;;;;;;10248052;28;93756;-63
2023/07/30 15:33:15;;;;;;;;;;;22.40;59.50;;;;;;10245873;28;95229;-63
2023/07/30 15:38:17;;;;;;;;;;;22.40;59.40;;;;;;10248616;28;92724;-63
2023/07/30 15:43:19;;;;;;;;;;;22.40;59.40;;;;;;10248523;28;94700;-62
2023/07/30 15:48:21;;;;;;;;;;;22.40;59.40;;;;;;10254634;28;94467;-62
2023/07/30 15:53:23;;;;;;;;;;;22.40;59.30;;;;;;10287029;28;94589;-63
2023/07/30 15:58:25;;;;;;;;;;;22.40;59.40;;;;;;10288170;28;93503;-63
2023/07/30 16:03:27;;;;;;;;;;;22.40;59.30;;;;;;10270323;28;94495;-62
2023/07/30 16:08:29;;;;;;;;;;;22.30;59.30;;;;;;10286990;28;92992;-62
2023/07/30 16:13:31;;;;;;;;;;;22.40;59.40;;;;;;10286124;28;93614;-62
2023/07/30 16:18:33;;;;;;;;;;;22.30;59.40;;;;;;10287205;28;93484;-63
2023/07/30 16:23:35;;;;;;;;;;;22.30;59.40;;;;;;10286243;28;96924;-63
2023/07/30 16:28:37;;;;;;;;;;;22.30;59.40;;;;;;10287367;28;93526;-63
2023/07/30 16:33:39;;;;;;;;;;;22.30;59.30;;;;;;10287382;28;94450;-63
2023/07/30 16:38:42;;;;;;;;;;;22.30;59.50;;;;;;10287026;28;94449;-63
2023/07/30 16:43:44;;;;;;;;;;;22.30;59.40;;;;;;10289021;28;93695;-62
2023/07/30 16:48:47;;;;;;;;;;;22.30;59.40;;;;;;10293919;28;94468;-63
2023/07/30 16:53:49;;;;;;;;;;;22.20;60.30;;;;;;10293010;28;93500;-63
2023/07/30 16:58:51;;;;;;;;;;;22.20;59.40;;;;;;10294854;28;92740;-63
2023/07/30 17:03:52;;;;;;;;;;;22.20;59.40;;;;;;10293060;28;94461;-63
2023/07/30 17:08:54;;;;;;;;;;;22.20;59.40;;;;;;10293352;28;94713;-63
2023/07/30 17:13:56;;;;;;;;;;;22.20;59.50;;;;;;10289910;28;95958;-63
2023/07/30 17:18:58;;;;;;;;;;;22.20;59.50;;;;;;10291676;28;94462;-63
2023/07/30 17:24:01;;;;;;;;;;;22.20;59.60;;;;;;10275947;28;94576;-62
2023/07/30 17:29:03;;;;;;;;;;;22.20;59.60;;;;;;10292500;28;93456;-62
2023/07/30 17:34:04;;;;;;;;;;;22.20;59.70;;;;;;10292815;28;93456;-63
2023/07/30 17:39:07;;;;;;;;;;;22.20;59.70;;;;;;10291807;28;93444;-63
2023/07/30 17:44:09;;;;;;;;;;;22.20;59.80;;;;;;10274156;28;93420;-63
2023/07/30 17:49:10;;;;;;;;;;;22.10;59.80;;;;;;10292225;28;92764;-63
2023/07/30 17:54:12;;;;;;;;;;;22.10;59.80;;;;;;10290691;28;94560;-63
2023/07/30 17:59:14;;;;;;;;;;;22.10;59.90;;;;;;10291905;28;94101;-63
2023/07/30 18:04:16;;;;;;;;;;;22.10;60.00;;;;;;10288740;28;95662;-63
2023/07/30 18:09:18;;;;;;;;;;;22.10;60.00;;;;;;10289756;28;93462;-64
2023/07/30 18:14:20;;;;;;;;;;;22.10;61.00;;;;;;10289625;28;93460;-63
2023/07/30 18:19:22;;;;;;;;;;;22.10;60.10;;;;;;10291377;28;94576;-63
2023/07/30 18:24:24;;;;;;;;;;;22.10;60.10;;;;;;10289892;28;93393;-64
2023/07/30 18:29:26;;;;;;;;;;;22.10;60.10;;;;;;10290235;28;93487;-63
2023/07/30 18:34:28;;;;;;;;;;;22.20;60.20;;;;;;10272776;28;94019;-63
2023/07/30 18:39:30;;;;;;;;;;;22.20;60.10;;;;;;10290575;28;93699;-63
2023/07/30 18:44:32;;;;;;;;;;;22.20;60.20;;;;;;10273533;28;94551;-63
2023/07/30 18:49:33;;;;;;;;;;;22.20;60.20;;;;;;10290280;28;93695;-63
2023/07/30 18:54:35;;;;;;;;;;;22.20;60.20;;;;;;10286959;28;95896;-64
2023/07/30 18:59:37;;;;;;;;;;;22.20;60.20;;;;;;10290213;28;94076;-64
2023/07/30 19:04:39;;;;;;;;;;;22.20;60.20;;;;;;10276464;28;94618;-63
2023/07/30 19:09:41;;;;;;;;;;;22.20;60.30;;;;;;10248388;28;92460;-63
2023/07/30 19:14:42;;;;;;;;;;;22.20;60.30;;;;;;10249219;28;94801;-63
2023/07/30 19:19:44;;;;;;;;;;;22.20;60.30;;;;;;10248439;28;93470;-63
2023/07/30 19:24:46;;;;;;;;;;;22.20;60.30;;;;;;10248511;28;93502;-63
2023/07/30 19:29:49;;;;;;;;;;;22.20;60.40;;;;;;10249976;28;92690;-63
2023/07/30 19:34:51;;;;;;;;;;;22.20;60.40;;;;;;10230622;28;94631;-63
2023/07/30 19:39:52;;;;;;;;;;;22.20;60.40;;;;;;10248179;28;94440;-63
2023/07/30 19:44:54;;;;;;;;;;;22.20;60.40;;;;;;10246440;28;96203;-63
2023/07/30 19:49:57;;;;;;;;;;;22.20;60.40;;;;;;10266952;28;93268;-63
2023/07/30 19:55:00;;;;;;;;;;;22.20;60.40;;;;;;10288792;28;93719;-63
2023/07/30 20:00:03;;;;;;;;;;;22.20;60.50;;;;;;10287004;28;93371;-64
2023/07/30 20:05:05;;;;;;;;;;;22.20;60.50;;;;;;10287657;28;93513;-64
2023/07/30 20:10:07;;;;;;;;;;;22.20;60.50;;;;;;10288020;28;93848;-63
2023/07/30 20:15:09;;;;;;;;;;;22.20;60.50;;;;;;10288754;28;93188;-63
2023/07/30 20:20:11;;;;;;;;;;;22.20;60.60;;;;;;10293200;28;92696;-63
2023/07/30 20:25:13;;;;;;;;;;;22.20;60.60;;;;;;10294074;28;94420;-63
2023/07/30 20:30:15;;;;;;;;;;;22.20;60.60;;;;;;10295443;28;94274;-63
2023/07/30 20:35:16;;;;;;;;;;;22.20;60.70;;;;;;10292030;28;96842;-63
2023/07/30 20:40:18;;;;;;;;;;;22.20;60.60;;;;;;10293772;28;93381;-64
2023/07/30 20:45:21;;;;;;;;;;;22.20;60.70;;;;;;10295085;28;93472;-63
2023/07/30 20:50:23;;;;;;;;;;;22.20;60.80;;;;;;10275777;28;94525;-64
2023/07/30 20:55:26;;;;;;;;;;;22.20;60.80;;;;;;10293382;28;94509;-63
2023/07/30 21:00:28;;;;;;;;;;;22.20;60.90;;;;;;10275934;28;93704;-63
2023/07/30 21:05:30;;;;;;;;;;;22.20;61.00;;;;;;10293166;28;93286;-63
2023/07/30 21:10:32;;;;;;;;;;;22.20;61.00;;;;;;10293828;28;91950;-63
2023/07/30 21:15:33;;;;;;;;;;;22.10;61.40;;;;;;10292841;28;92914;-63
2023/07/30 21:20:36;;;;;;;;;;;22.10;61.20;;;;;;10292942;28;93499;-63
2023/07/30 21:25:37;;;;;;;;;;;22.10;61.40;;;;;;10291729;28;96804;-63
2023/07/30 21:30:39;;;;;;;;;;;22.10;61.90;;;;;;10292962;28;94395;-63
2023/07/30 21:35:41;;;;;;;;;;;22.10;61.80;;;;;;10292027;28;93491;-63
2023/07/30 21:40:45;;;;;;;;;;;22.10;61.80;;;;;;10291856;28;93423;-63
2023/07/30 21:45:51;;;;;;;;;;;22.10;61.80;;;;;;10292720;28;93226;-63
2023/07/30 21:51:00;;;;;;;;;;;22.10;62.00;;;;;;10261196;28;93464;-63
2023/07/30 21:56:02;;;;;;;;;;;22.00;62.10;;;;;;10291769;28;93174;-63
2023/07/30 22:01:04;;;;;;;;;;;22.00;62.10;;;;;;10291860;28;92578;-64
2023/07/30 22:06:06;;;;;;;;;;;22.00;62.10;;;;;;10291148;28;93554;-63
2023/07/30 22:11:12;;;;;;;;;;;22.00;62.10;;;;;;10291021;28;93348;-63
2023/07/30 22:16:14;;;;;;;;;;;22.00;62.20;;;;;;10271342;28;95905;-63
2023/07/30 22:21:17;;;;;;;;;;;22.00;62.20;;;;;;10291370;28;94490;-63
2023/07/30 22:26:19;;;;;;;;;;;22.00;62.30;;;;;;10291156;28;94457;-63
2023/07/30 22:31:21;;;;;;;;;;;22.00;62.30;;;;;;10290832;28;93431;-63
2023/07/30 22:36:23;;;;;;;;;;;21.90;62.40;;;;;;10256706;28;94506;-63
2023/07/30 22:41:25;;;;;;;;;;;21.90;62.30;;;;;;10288407;28;93581;-63
2023/07/30 22:46:28;;;;;;;;;;;21.90;62.40;;;;;;10291101;28;95058;-60
2023/07/30 22:51:30;;;;;;;;;;;21.90;62.40;;;;;;10290243;28;93719;-60
2023/07/30 22:56:32;;;;;;;;;;;21.90;62.20;;;;;;10290159;28;94575;-60
2023/07/30 23:01:34;;;;;;;;;;;22.00;62.40;;;;;;10290023;28;94603;-59
2023/07/30 23:06:35;;;;;;;;;;;21.90;62.30;;;;;;10287059;28;95844;-60
2023/07/30 23:11:38;;;;;;;;;;;21.90;62.30;;;;;;10289417;28;94532;-60
2023/07/30 23:16:42;;;;;;;;;;;22.00;62.30;;;;;;10272151;28;93986;-60
2023/07/30 23:21:44;;;;;;;;;;;22.00;62.40;;;;;;10289256;28;94762;-60
2023/07/30 23:26:45;;;;;;;;;;;22.00;62.30;;;;;;10272000;28;93473;-60
2023/07/30 23:31:47;;;;;;;;;;;22.00;62.30;;;;;;10271981;28;94485;-60
2023/07/30 23:36:49;;;;;;;;;;;22.00;62.30;;;;;;10288678;28;93431;-60
2023/07/30 23:41:51;;;;;;;;;;;22.00;62.30;;;;;;10290125;28;93731;-60
2023/07/30 23:46:52;;;;;;;;;;;22.00;62.30;;;;;;10288814;28;94587;-60
2023/07/30 23:51:54;;;;;;;;;;;22.00;62.30;;;;;;10287890;28;94612;-60
2023/07/30 23:56:56;;;;;;;;;;;22.00;62.30;;;;;;10285844;28;96178;-60
